Time;durP1;ratioP1;P1;durP2;ratioP2;P2;SDS_P1;SDS_P2;PMS_P1;PMS_P2;Temp;Humidity;BMP_temperature;BMP_pressure;BME280_temperature;BME280_humidity;BME280_pressure;Samples;Min_cycle;Max_cycle;Signal;HPM_P1;HPM_P2
2022/04/29 00:00:41;;;;;;;7.50;6.43;;;13.40;47.60;;;;;;5077642;28;20435;-47
2022/04/29 00:03:07;;;;;;;7.27;6.40;;;13.20;48.20;;;;;;5078041;28;20428;-46
2022/04/29 00:05:37;;;;;;;6.57;6.07;;;12.90;48.60;;;;;;5060418;28;20440;-47
2022/04/29 00:08:05;;;;;;;7.30;6.10;;;12.70;49.10;;;;;;5078178;28;20721;-47
2022/04/29 00:10:31;;;;;;;6.13;5.63;;;12.60;49.60;;;;;;5077818;28;20436;-47
2022/04/29 00:12:56;;;;;;;7.03;6.27;;;12.40;50.10;;;;;;5078116;28;20869;-47
2022/04/29 00:15:22;;;;;;;6.77;6.20;;;12.30;50.60;;;;;;5077284;28;20565;-47
2022/04/29 00:17:48;;;;;;;8.17;6.40;;;12.20;51.10;;;;;;5077740;28;20277;-47
2022/04/29 00:20:14;;;;;;;6.67;6.07;;;12.00;51.60;;;;;;5078274;28;20218;-47
2022/04/29 00:22:40;;;;;;;6.90;6.30;;;11.90;52.20;;;;;;5077390;28;20213;-47
2022/04/29 00:25:09;;;;;;;6.73;6.23;;;11.80;52.80;;;;;;5077821;28;20481;-47
2022/04/29 00:27:36;;;;;;;7.00;6.40;;;11.70;53.50;;;;;;5060085;28;20436;-47
2022/04/29 00:30:04;;;;;;;6.90;6.30;;;11.60;54.20;;;;;;5077355;28;20510;-46
2022/04/29 00:32:29;;;;;;;7.70;7.00;;;11.50;54.80;;;;;;5077263;28;20830;-47
2022/04/29 00:34:55;;;;;;;6.37;5.87;;;11.50;55.50;;;;;;5077468;28;20416;-47
2022/04/29 00:37:24;;;;;;;7.53;6.93;;;11.40;56.20;;;;;;5077370;28;20182;-46
2022/04/29 00:39:49;;;;;;;7.10;6.50;;;11.30;57.00;;;;;;5077698;28;20217;-47
2022/04/29 00:42:17;;;;;;;6.90;6.33;;;11.20;57.70;;;;;;5076967;28;20459;-46
2022/04/29 00:44:44;;;;;;;7.00;6.40;;;11.10;58.50;;;;;;5077431;28;20560;-47
2022/04/29 00:47:13;;;;;;;7.50;6.80;;;11.10;59.60;;;;;;5059549;28;20455;-48
2022/04/29 00:49:39;;;;;;;7.37;6.77;;;11.00;60.70;;;;;;5060585;28;20421;-47
2022/04/29 00:52:15;;;;;;;7.93;7.23;;;10.90;62.00;;;;;;5058818;28;20472;-47
2022/04/29 00:54:42;;;;;;;8.50;7.70;;;10.90;63.40;;;;;;5076651;28;20415;-47
2022/04/29 00:57:11;;;;;;;8.00;7.23;;;10.80;64.60;;;;;;5076878;28;20496;-47
2022/04/29 01:00:06;;;;;;;7.50;6.90;;;10.80;65.70;;;;;;5077751;28;20526;-47
2022/04/29 01:02:32;;;;;;;8.00;7.20;;;10.70;66.80;;;;;;5077037;28;20509;-47
2022/04/29 01:05:07;;;;;;;8.40;7.60;;;10.70;68.10;;;;;;5059844;28;20418;-51
2022/04/29 01:10:36;;;;;;;8.17;7.47;;;10.50;70.80;;;;;;5070636;28;20543;-47
2022/04/29 01:13:04;;;;;;;8.00;7.30;;;10.50;71.10;;;;;;5065693;28;20464;-47
2022/04/29 01:15:30;;;;;;;8.00;7.20;;;10.50;72.10;;;;;;5039525;28;20471;-47
2022/04/29 01:17:58;;;;;;;8.03;7.33;;;10.40;72.80;;;;;;5038764;28;20503;-47
2022/04/29 01:20:26;;;;;;;8.20;7.50;;;10.40;73.50;;;;;;5057066;28;20503;-47
2022/04/29 01:22:52;;;;;;;8.47;7.67;;;10.40;74.10;;;;;;5056849;28;20542;-47
2022/04/29 01:25:17;;;;;;;7.80;7.20;;;10.30;74.40;;;;;;5057394;28;20513;-47
2022/04/29 01:27:44;;;;;;;8.40;7.60;;;10.30;75.00;;;;;;5056677;28;20236;-47
2022/04/29 01:30:12;;;;;;;8.30;7.40;;;10.20;75.70;;;;;;5057314;28;20198;-47
2022/04/29 01:32:39;;;;;;;8.57;7.87;;;10.20;76.60;;;;;;5057361;28;20922;-47
2022/04/29 01:35:07;;;;;;;8.90;8.10;;;10.20;77.30;;;;;;5056670;28;20471;-46
2022/04/29 01:37:33;;;;;;;8.27;7.50;;;10.10;77.90;;;;;;5039988;28;20520;-47
2022/04/29 01:39:59;;;;;;;7.30;6.70;;;10.00;78.30;;;;;;5060072;28;20494;-47
2022/04/29 01:42:25;;;;;;;12.50;7.13;;;10.00;78.70;;;;;;5079264;28;20416;-47
2022/04/29 01:44:50;;;;;;;9.33;8.43;;;10.00;79.20;;;;;;5080479;28;20474;-47
2022/04/29 01:47:28;;;;;;;8.40;7.60;;;10.00;79.70;;;;;;5080834;28;20439;-47
2022/04/29 01:49:54;;;;;;;8.20;7.40;;;9.90;81.60;;;;;;5080769;28;20194;-47
2022/04/29 01:52:19;;;;;;;8.70;7.90;;;9.90;81.80;;;;;;5080458;28;20542;-47
2022/04/29 01:54:45;;;;;;;9.10;8.30;;;9.80;82.30;;;;;;5080164;28;20190;-47
2022/04/29 01:57:11;;;;;;;8.80;7.90;;;9.80;82.80;;;;;;5080511;28;20262;-47
2022/04/29 01:59:40;;;;;;;8.90;8.17;;;9.80;83.30;;;;;;5080153;28;20502;-45
2022/04/29 02:02:06;;;;;;;8.20;7.50;;;9.70;83.50;;;;;;5080925;28;20182;-46
2022/04/29 02:04:33;;;;;;;8.80;8.03;;;9.70;83.90;;;;;;5080371;28;20506;-46
2022/04/29 02:06:58;;;;;;;8.27;7.53;;;9.60;84.30;;;;;;5080584;28;20848;-46
2022/04/29 02:09:24;;;;;;;9.13;8.30;;;9.60;84.60;;;;;;5080185;28;20430;-46
2022/04/29 02:12:09;;;;;;;9.50;8.70;;;9.60;85.00;;;;;;5079763;28;20194;-46
2022/04/29 02:14:37;;;;;;;8.57;7.87;;;9.50;85.30;;;;;;5080110;28;20498;-45
2022/04/29 02:17:07;;;;;;;8.77;7.97;;;9.50;85.60;;;;;;5080111;28;20844;-46
2022/04/29 02:19:34;;;;;;;8.33;7.63;;;9.50;85.60;;;;;;5062338;28;20758;-46
2022/04/29 02:22:01;;;;;;;8.03;7.33;;;9.40;85.80;;;;;;5079955;28;20424;-46
2022/04/29 02:24:27;;;;;;;7.77;7.07;;;9.40;86.10;;;;;;5080352;28;20670;-47
2022/04/29 02:26:53;;;;;;;7.63;7.03;;;9.40;86.50;;;;;;5079695;28;20493;-46
2022/04/29 02:29:19;;;;;;;9.17;8.27;;;9.30;86.50;;;;;;5079658;28;20432;-46
2022/04/29 02:31:45;;;;;;;8.20;7.40;;;9.30;86.60;;;;;;5079652;28;20428;-45
2022/04/29 02:34:11;;;;;;;8.50;7.80;;;9.30;86.80;;;;;;5080236;28;20419;-46
2022/04/29 02:36:37;;;;;;;8.80;7.90;;;9.30;87.00;;;;;;5080800;28;20438;-46
2022/04/29 02:39:03;;;;;;;9.00;8.10;;;9.20;87.00;;;;;;5080108;28;20209;-46
2022/04/29 02:41:29;;;;;;;8.47;7.77;;;9.20;87.20;;;;;;5079467;28;20470;-46
2022/04/29 02:43:55;;;;;;;8.87;7.97;;;9.20;87.50;;;;;;5079798;28;20432;-47
2022/04/29 02:46:20;;;;;;;8.43;7.73;;;9.10;87.60;;;;;;5079186;28;20495;-46
2022/04/29 02:48:49;;;;;;;7.50;6.80;;;9.10;87.80;;;;;;5078619;28;20521;-47
2022/04/29 02:51:18;;;;;;;7.90;7.23;;;9.10;88.10;;;;;;5078759;28;20254;-47
2022/04/29 02:53:44;;;;;;;7.83;7.10;;;9.10;88.30;;;;;;5077488;28;20480;-47
2022/04/29 02:56:10;;;;;;;9.23;8.30;;;9.00;88.40;;;;;;5079438;28;20416;-47
2022/04/29 02:58:36;;;;;;;9.27;8.47;;;9.00;88.70;;;;;;5077427;28;20590;-47
2022/04/29 03:01:02;;;;;;;9.33;7.97;;;9.00;89.00;;;;;;5078106;28;20707;-47
2022/04/29 03:03:28;;;;;;;9.17;8.47;;;8.90;89.00;;;;;;5078038;28;20750;-46
2022/04/29 03:05:54;;;;;;;8.70;7.90;;;8.90;89.10;;;;;;5078881;28;20427;-47
2022/04/29 03:08:20;;;;;;;9.10;8.30;;;8.90;89.30;;;;;;5078615;28;20436;-46
2022/04/29 03:10:46;;;;;;;10.07;9.10;;;8.90;89.30;;;;;;5078510;28;20553;-47
2022/04/29 03:13:13;;;;;;;8.20;7.50;;;8.80;89.40;;;;;;5078548;28;20204;-47
2022/04/29 03:15:38;;;;;;;9.00;8.20;;;8.80;89.50;;;;;;5078604;28;20439;-47
2022/04/29 03:18:20;;;;;;;8.97;8.07;;;8.80;89.60;;;;;;5078852;28;20427;-46
2022/04/29 03:20:47;;;;;;;8.67;7.80;;;8.80;90.20;;;;;;5078880;28;20263;-46
2022/04/29 03:23:13;;;;;;;8.63;7.80;;;8.70;89.90;;;;;;5078883;28;20416;-47
2022/04/29 03:25:42;;;;;;;10.23;8.63;;;8.70;90.00;;;;;;5078089;28;20436;-47
2022/04/29 03:28:09;;;;;;;9.47;8.67;;;8.70;90.10;;;;;;5044600;28;20920;-47
2022/04/29 03:30:35;;;;;;;9.00;8.30;;;8.60;90.10;;;;;;5078166;28;20440;-46
2022/04/29 03:33:04;;;;;;;9.77;9.07;;;8.60;90.20;;;;;;5078392;28;20416;-47
2022/04/29 03:35:30;;;;;;;9.53;8.60;;;8.60;90.30;;;;;;5078183;28;20786;-47
2022/04/29 03:37:56;;;;;;;11.13;10.03;;;8.60;90.40;;;;;;5078747;28;20414;-46
2022/04/29 03:40:25;;;;;;;10.13;9.23;;;8.50;90.40;;;;;;5078408;28;20571;-46
2022/04/29 03:42:55;;;;;;;8.20;7.53;;;8.50;90.50;;;;;;5078655;28;20190;-46
2022/04/29 03:45:23;;;;;;;8.80;8.00;;;8.50;90.60;;;;;;5078166;28;20779;-46
2022/04/29 03:47:48;;;;;;;8.43;7.73;;;8.50;90.60;;;;;;5060769;28;20468;-46
2022/04/29 03:50:14;;;;;;;10.80;9.90;;;8.50;90.60;;;;;;5060636;28;20432;-47
2022/04/29 03:52:51;;;;;;;10.03;8.70;;;8.40;90.60;;;;;;5077860;28;20544;-46
2022/04/29 03:55:24;;;;;;;9.63;8.73;;;8.40;90.70;;;;;;5078004;28;20446;-47
2022/04/29 03:57:50;;;;;;;9.67;8.87;;;8.40;90.80;;;;;;5078668;28;20424;-46
2022/04/29 04:00:17;;;;;;;8.80;8.00;;;8.40;90.80;;;;;;5077946;28;20511;-46
2022/04/29 04:02:43;;;;;;;9.33;8.53;;;8.30;90.90;;;;;;5078287;28;20532;-46
2022/04/29 04:05:09;;;;;;;10.13;9.23;;;8.30;90.90;;;;;;5076802;28;20442;-46
2022/04/29 04:07:35;;;;;;;9.70;8.80;;;8.30;90.90;;;;;;5076945;28;20861;-46
2022/04/29 04:10:02;;;;;;;9.90;9.03;;;8.30;91.00;;;;;;5075783;28;20541;-46
2022/04/29 04:12:39;;;;;;;10.17;9.10;;;8.30;91.00;;;;;;5076463;28;21092;-46
2022/04/29 04:15:06;;;;;;;10.03;9.13;;;8.30;91.10;;;;;;5075636;28;20427;-47
2022/04/29 04:17:31;;;;;;;9.10;8.30;;;8.30;91.10;;;;;;5058076;28;20426;-46
2022/04/29 04:19:57;;;;;;;9.47;8.67;;;8.30;91.10;;;;;;5076095;28;20471;-46
2022/04/29 04:22:36;;;;;;;9.97;9.07;;;8.30;91.10;;;;;;5077037;28;20181;-46
2022/04/29 04:25:12;;;;;;;9.40;8.70;;;8.30;91.20;;;;;;5077220;28;20185;-45
2022/04/29 04:27:38;;;;;;;9.80;8.90;;;8.30;91.10;;;;;;5077895;28;20423;-47
2022/04/29 04:30:05;;;;;;;9.70;8.80;;;8.30;91.10;;;;;;5059745;28;20461;-46
2022/04/29 04:32:34;;;;;;;10.20;9.30;;;8.30;91.10;;;;;;5077113;28;20508;-47
2022/04/29 04:35:01;;;;;;;10.13;9.30;;;8.30;91.10;;;;;;5077186;28;20443;-47
2022/04/29 04:37:28;;;;;;;9.10;8.30;;;8.30;91.00;;;;;;5076815;28;20440;-46
2022/04/29 04:39:58;;;;;;;9.20;8.50;;;8.40;91.10;;;;;;5059770;28;20480;-46
2022/04/29 04:42:24;;;;;;;9.80;8.90;;;8.40;91.00;;;;;;5077107;28;20434;-46
2022/04/29 04:44:52;;;;;;;9.70;8.40;;;8.50;91.10;;;;;;5077382;28;20448;-45
2022/04/29 04:47:18;;;;;;;8.97;8.27;;;8.50;91.00;;;;;;5076797;28;20828;-46
2022/04/29 04:49:44;;;;;;;9.53;8.73;;;8.50;91.00;;;;;;5076692;28;20426;-45
2022/04/29 04:52:15;;;;;;;9.60;8.80;;;8.60;91.00;;;;;;5076201;28;20464;-46
2022/04/29 04:54:41;;;;;;;9.17;8.33;;;8.60;91.00;;;;;;5076310;28;20190;-46
2022/04/29 04:57:07;;;;;;;9.60;8.80;;;8.70;91.30;;;;;;5074893;28;20420;-46
2022/04/29 04:59:33;;;;;;;10.13;9.10;;;8.70;91.00;;;;;;5075567;28;20211;-46
2022/04/29 05:01:59;;;;;;;9.77;8.87;;;8.80;90.90;;;;;;5074908;28;20181;-46
2022/04/29 05:04:27;;;;;;;10.20;9.30;;;8.90;90.90;;;;;;5073899;28;20425;-46
2022/04/29 05:06:53;;;;;;;9.97;9.07;;;9.00;90.80;;;;;;5074572;28;20412;-46
2022/04/29 05:09:19;;;;;;;10.00;9.00;;;9.10;90.70;;;;;;5056192;28;20518;-46
2022/04/29 05:11:44;;;;;;;10.50;9.60;;;9.20;90.70;;;;;;5073302;28;20207;-46
2022/04/29 05:14:10;;;;;;;11.00;9.80;;;9.30;90.60;;;;;;5072293;28;20376;-45
2022/04/29 05:16:36;;;;;;;10.60;9.70;;;9.40;90.50;;;;;;5073732;28;20194;-47
2022/04/29 05:19:01;;;;;;;10.90;9.97;;;9.50;90.50;;;;;;5076434;28;20460;-46
2022/04/29 05:21:27;;;;;;;11.07;10.17;;;9.60;90.40;;;;;;5076024;28;20196;-47
2022/04/29 05:23:53;;;;;;;10.80;9.83;;;9.70;90.30;;;;;;5076694;28;20173;-46
2022/04/29 05:26:18;;;;;;;10.00;9.10;;;9.70;90.10;;;;;;5077655;28;20188;-46
2022/04/29 05:28:44;;;;;;;9.80;9.00;;;9.80;90.00;;;;;;5076934;28;20197;-47
2022/04/29 05:31:10;;;;;;;9.53;8.83;;;9.90;89.70;;;;;;5078004;28;20178;-46
2022/04/29 05:33:38;;;;;;;10.63;9.67;;;10.00;88.20;;;;;;5042785;28;20646;-46
2022/04/29 05:36:05;;;;;;;11.50;10.40;;;10.10;88.00;;;;;;5077792;28;20415;-47
2022/04/29 05:44:00;;;;;;;11.50;10.40;;;10.40;87.70;;;;;;5075852;28;20517;-46
2022/04/29 05:46:26;;;;;;;11.47;9.67;;;10.50;87.50;;;;;;5078419;28;20411;-46
2022/04/29 05:48:52;;;;;;;10.87;9.87;;;10.60;87.20;;;;;;5076922;28;20333;-47
2022/04/29 05:51:17;;;;;;;11.30;10.40;;;10.80;86.80;;;;;;5076671;28;20427;-47
2022/04/29 05:53:43;;;;;;;10.43;9.60;;;11.10;86.40;;;;;;5073307;28;20738;-47
2022/04/29 05:56:09;;;;;;;11.00;9.90;;;11.40;85.90;;;;;;5077141;28;20325;-47
2022/04/29 05:58:35;;;;;;;10.77;9.87;;;11.60;85.10;;;;;;5076508;28;20312;-47
2022/04/29 06:01:02;;;;;;;10.73;9.83;;;11.90;84.40;;;;;;5075408;28;20909;-47
2022/04/29 06:03:28;;;;;;;10.83;9.43;;;12.20;83.70;;;;;;5075958;28;20638;-46
2022/04/29 06:05:53;;;;;;;10.13;9.20;;;12.50;82.80;;;;;;5076729;28;20417;-47
2022/04/29 06:08:19;;;;;;;10.63;9.63;;;12.70;81.80;;;;;;5074189;28;20357;-47
2022/04/29 06:10:45;;;;;;;9.83;9.03;;;12.90;80.80;;;;;;5074479;28;20199;-47
2022/04/29 06:13:11;;;;;;;12.47;11.30;;;13.00;80.00;;;;;;5075255;28;20293;-47
2022/04/29 06:15:36;;;;;;;12.80;11.60;;;13.10;79.40;;;;;;5076213;28;20278;-47
2022/04/29 06:18:03;;;;;;;12.30;11.20;;;13.20;79.60;;;;;;5076435;28;20416;-46
2022/04/29 06:20:29;;;;;;;11.30;10.40;;;13.30;78.40;;;;;;5075459;28;20534;-47
2022/04/29 06:22:55;;;;;;;13.63;12.20;;;13.40;78.20;;;;;;5076156;28;20917;-47
2022/04/29 06:25:22;;;;;;;11.70;10.53;;;13.50;78.00;;;;;;5058591;28;20404;-47
2022/04/29 06:27:48;;;;;;;11.73;10.53;;;13.60;77.70;;;;;;5074027;28;20811;-47
2022/04/29 06:30:14;;;;;;;13.90;11.27;;;13.80;77.30;;;;;;5073695;28;20428;-47
2022/04/29 06:32:39;;;;;;;11.60;10.60;;;14.00;76.70;;;;;;5073021;28;20193;-47
2022/04/29 06:35:06;;;;;;;11.47;10.30;;;14.20;76.10;;;;;;5059173;28;20421;-47
2022/04/29 06:37:32;;;;;;;11.30;10.27;;;14.50;75.40;;;;;;5077611;28;20616;-47
2022/04/29 06:39:58;;;;;;;11.20;10.20;;;14.80;74.50;;;;;;5076759;28;20479;-47
2022/04/29 06:42:24;;;;;;;12.03;10.67;;;15.10;73.60;;;;;;5077161;28;20440;-47
2022/04/29 06:44:49;;;;;;;12.07;10.87;;;15.50;72.80;;;;;;5075930;28;20175;-47
2022/04/29 06:47:16;;;;;;;11.70;10.23;;;15.80;71.60;;;;;;5057541;28;20190;-47
2022/04/29 06:49:43;;;;;;;10.73;9.50;;;16.10;70.10;;;;;;5078157;28;20528;-47
2022/04/29 06:52:08;;;;;;;11.37;10.37;;;16.40;68.70;;;;;;5077664;28;20476;-47
2022/04/29 06:54:34;;;;;;;9.77;8.93;;;16.60;67.10;;;;;;5059025;28;20442;-47
2022/04/29 06:57:00;;;;;;;10.83;9.80;;;16.80;65.30;;;;;;5058939;28;20200;-47
2022/04/29 06:59:26;;;;;;;10.87;9.80;;;17.00;63.70;;;;;;5062797;28;20885;-47
2022/04/29 07:01:58;;;;;;;10.57;9.40;;;17.20;59.80;;;;;;5077059;28;20247;-47
2022/04/29 07:04:28;;;;;;;10.73;9.53;;;17.30;56.60;;;;;;5075602;28;20512;-45
2022/04/29 07:06:57;;;;;;;9.20;8.30;;;17.30;54.50;;;;;;5055625;28;20462;-46
2022/04/29 07:09:24;;;;;;;7.63;7.00;;;17.40;54.50;;;;;;5055158;28;20444;-47
2022/04/29 07:11:51;;;;;;;7.30;6.60;;;17.50;54.10;;;;;;5075867;28;20502;-43
2022/04/29 07:14:19;;;;;;;7.87;7.07;;;17.60;53.40;;;;;;5076437;28;20437;-48
2022/04/29 07:16:45;;;;;;;9.67;7.70;;;17.80;52.80;;;;;;5059187;28;20478;-47
2022/04/29 07:19:11;;;;;;;8.27;7.00;;;18.10;52.20;;;;;;5075735;28;20467;-49
2022/04/29 07:21:36;;;;;;;7.30;6.60;;;18.30;51.60;;;;;;5076614;28;20455;-47
2022/04/29 07:24:02;;;;;;;9.00;8.10;;;18.50;51.20;;;;;;5077312;28;20191;-45
2022/04/29 07:26:28;;;;;;;8.80;8.00;;;18.70;49.80;;;;;;5075985;28;20234;-45
2022/04/29 07:28:54;;;;;;;8.10;7.40;;;18.70;48.60;;;;;;5076248;28;20452;-44
2022/04/29 07:31:19;;;;;;;9.63;8.73;;;18.70;48.20;;;;;;5077483;28;20597;-46
2022/04/29 07:33:45;;;;;;;10.03;8.50;;;18.80;48.00;;;;;;5077600;28;20551;-48
2022/04/29 07:41:44;;;;;;;4.93;4.43;;;19.10;51.10;;;;;;5076168;28;20458;-46
2022/04/29 07:44:10;;;;;;;4.40;4.00;;;19.40;52.10;;;;;;5077791;28;20815;-45
2022/04/29 07:46:36;;;;;;;4.77;4.37;;;19.70;52.50;;;;;;5058229;28;20551;-48
2022/04/29 07:49:03;;;;;;;6.93;6.10;;;20.10;51.80;;;;;;5074647;28;20211;-44
2022/04/29 07:51:29;;;;;;;5.80;5.30;;;20.40;47.90;;;;;;5075069;28;20592;-47
2022/04/29 07:53:55;;;;;;;4.90;4.50;;;20.60;48.70;;;;;;5076343;28;20476;-47
2022/04/29 07:56:21;;;;;;;5.30;4.80;;;20.80;48.80;;;;;;5075272;28;20183;-46
2022/04/29 07:58:47;;;;;;;5.50;5.00;;;21.10;48.40;;;;;;5068250;28;20476;-44
2022/04/29 08:01:13;;;;;;;4.30;3.90;;;21.40;47.80;;;;;;5057709;28;20188;-47
2022/04/29 08:03:39;;;;;;;5.57;5.17;;;21.70;47.70;;;;;;5057351;28;20879;-46
2022/04/29 08:06:06;;;;;;;5.03;4.63;;;22.00;47.10;;;;;;5057471;28;20180;-48
2022/04/29 08:08:32;;;;;;;6.07;5.47;;;22.20;46.70;;;;;;5065917;28;20512;-44
2022/04/29 08:10:58;;;;;;;6.37;5.43;;;22.40;45.60;;;;;;5067301;28;20541;-43
2022/04/29 08:13:24;;;;;;;6.10;5.37;;;22.50;44.80;;;;;;5057325;28;20826;-45
2022/04/29 08:15:50;;;;;;;6.83;5.30;;;22.70;44.30;;;;;;5057113;28;20538;-43
2022/04/29 08:18:17;;;;;;;4.70;4.30;;;22.70;43.60;;;;;;5055535;28;20226;-45
2022/04/29 08:20:43;;;;;;;5.40;4.90;;;22.70;43.70;;;;;;5056813;28;20418;-45
2022/04/29 08:23:09;;;;;;;6.50;5.90;;;22.60;43.60;;;;;;5056198;28;20684;-44
2022/04/29 08:25:36;;;;;;;6.13;5.57;;;22.60;42.20;;;;;;5056315;28;20430;-44
2022/04/29 08:28:03;;;;;;;6.20;5.70;;;22.50;42.00;;;;;;5055053;28;20760;-44
2022/04/29 08:30:30;;;;;;;4.77;4.37;;;22.60;41.80;;;;;;5038134;28;20453;-43
2022/04/29 08:32:57;;;;;;;4.57;4.17;;;22.80;42.00;;;;;;5055396;28;20415;-44
2022/04/29 08:35:22;;;;;;;6.87;5.40;;;23.20;41.80;;;;;;5054483;28;20595;-47
2022/04/29 08:37:49;;;;;;;5.83;5.33;;;23.70;41.20;;;;;;5055496;28;20541;-46
2022/04/29 08:40:16;;;;;;;6.00;5.50;;;24.00;39.80;;;;;;5060008;28;20267;-46
2022/04/29 08:42:42;;;;;;;5.03;4.60;;;24.30;39.00;;;;;;5058232;28;20479;-44
2022/04/29 08:45:13;;;;;;;6.20;5.60;;;24.70;38.30;;;;;;5076848;28;20860;-44
2022/04/29 08:47:41;;;;;;;5.87;5.37;;;25.10;37.40;;;;;;5075424;28;20499;-47
2022/04/29 08:50:11;;;;;;;6.70;6.03;;;25.50;36.40;;;;;;5075743;28;20430;-47
2022/04/29 08:52:37;;;;;;;7.20;6.60;;;25.80;35.20;;;;;;5074974;28;20479;-45
2022/04/29 09:00:33;;;;;;;5.23;4.73;;;26.50;34.80;;;;;;5076137;28;20481;-46
2022/04/29 09:03:02;;;;;;;5.37;4.97;;;26.80;34.50;;;;;;5075204;28;20432;-43
2022/04/29 09:05:27;;;;;;;5.77;5.37;;;27.00;34.00;;;;;;5075961;28;20415;-48
2022/04/29 09:07:56;;;;;;;5.57;5.03;;;27.30;32.40;;;;;;5075624;28;20854;-45
2022/04/29 09:10:26;;;;;;;5.30;4.90;;;27.50;32.40;;;;;;5074286;28;20193;-49
2022/04/29 09:12:52;;;;;;;5.37;4.87;;;27.80;32.40;;;;;;5075439;28;20467;-46
2022/04/29 09:15:19;;;;;;;4.53;4.20;;;28.00;32.70;;;;;;5075034;28;20534;-47
2022/04/29 09:17:49;;;;;;;4.50;4.10;;;28.30;32.70;;;;;;5057711;28;20679;-47
2022/04/29 09:20:24;;;;;;;5.20;4.80;;;28.60;32.50;;;;;;5074000;28;20789;-43
2022/04/29 09:22:52;;;;;;;6.47;5.97;;;28.80;32.20;;;;;;5074547;28;20415;-43
2022/04/29 09:25:18;;;;;;;6.83;6.33;;;29.00;29.80;;;;;;5073185;28;20432;-47
2022/04/29 09:27:59;;;;;;;6.50;6.00;;;28.70;29.10;;;;;;5074731;28;20420;-44
2022/04/29 09:30:39;;;;;;;5.17;4.63;;;28.40;29.00;;;;;;5075166;28;20432;-44
2022/04/29 09:33:07;;;;;;;5.37;4.90;;;28.00;29.70;;;;;;5075953;28;20419;-46
2022/04/29 09:35:35;;;;;;;5.20;4.80;;;27.90;30.00;;;;;;5045450;28;20440;-44
2022/04/29 09:40:56;;;;;;;7.00;6.50;;;27.80;29.40;;;;;;5071721;28;20475;-43
2022/04/29 09:43:42;;;;;;;6.60;6.10;;;27.80;28.80;;;;;;5074953;28;20774;-45
2022/04/29 09:46:18;;;;;;;5.63;5.13;;;27.40;28.60;;;;;;5075483;28;20473;-44
2022/04/29 09:49:10;;;;;;;6.13;5.60;;;26.90;29.10;;;;;;5075920;28;20657;-44
2022/04/29 09:51:52;;;;;;;4.53;4.23;;;26.50;30.00;;;;;;5053506;28;20716;-44
2022/04/29 09:54:20;;;;;;;5.30;4.90;;;26.30;31.00;;;;;;5055904;28;20446;-44
2022/04/29 09:56:48;;;;;;;5.50;4.90;;;26.20;30.00;;;;;;5073046;28;20416;-45
2022/04/29 09:59:14;;;;;;;5.10;4.70;;;26.00;30.50;;;;;;5054249;28;20747;-43
2022/04/29 10:01:41;;;;;;;6.40;5.90;;;26.10;31.00;;;;;;5072773;28;20439;-44
2022/04/29 10:04:15;;;;;;;7.30;6.20;;;26.20;30.10;;;;;;5076250;28;20181;-45
2022/04/29 10:06:41;;;;;;;5.90;5.40;;;25.80;29.70;;;;;;5076998;28;20469;-46
2022/04/29 10:09:09;;;;;;;5.70;5.20;;;25.60;30.00;;;;;;5042320;28;20433;-46
2022/04/29 10:11:35;;;;;;;6.30;5.70;;;25.60;31.10;;;;;;5058120;28;20613;-43
2022/04/29 10:14:04;;;;;;;6.40;5.80;;;25.70;31.10;;;;;;5077500;28;20421;-45
2022/04/29 10:16:33;;;;;;;6.63;6.13;;;25.90;31.30;;;;;;5059590;28;20438;-42
2022/04/29 10:21:57;;;;;;;5.40;5.00;;;26.00;30.90;;;;;;5077533;28;20914;-50
2022/04/29 10:24:25;;;;;;;5.50;5.00;;;26.30;31.50;;;;;;5078935;28;20521;-49
2022/04/29 10:26:55;;;;;;;7.63;5.40;;;26.60;30.60;;;;;;5077825;28;20438;-45
2022/04/29 10:29:21;;;;;;;5.73;4.33;;;26.60;30.60;;;;;;5043708;28;20430;-45
2022/04/29 10:32:07;;;;;;;5.17;4.77;;;26.70;32.50;;;;;;5058763;28;20434;-42
2022/04/29 10:34:34;;;;;;;4.80;4.30;;;26.90;31.50;;;;;;5076693;28;20457;-44
2022/04/29 10:37:01;;;;;;;4.43;4.03;;;27.30;32.10;;;;;;5076034;28;20776;-46
2022/04/29 10:39:26;;;;;;;5.80;4.47;;;27.80;33.10;;;;;;5076071;28;20985;-48
2022/04/29 10:42:11;;;;;;;9.10;6.57;;;28.30;32.30;;;;;;5058224;28;20485;-48
2022/04/29 10:45:06;;;;;;;5.33;4.93;;;28.70;29.70;;;;;;5058694;28;20188;-46
2022/04/29 10:47:42;;;;;;;4.90;4.40;;;28.90;30.00;;;;;;5062544;28;20485;-46
2022/04/29 10:50:29;;;;;;;6.27;4.67;;;29.20;29.90;;;;;;5075280;28;20498;-46
2022/04/29 10:53:05;;;;;;;5.73;5.20;;;29.70;29.90;;;;;;5076904;28;20550;-46
2022/04/29 10:55:31;;;;;;;6.63;6.03;;;30.20;29.50;;;;;;5075466;28;20428;-47
2022/04/29 10:58:02;;;;;;;6.10;5.30;;;30.30;27.60;;;;;;5075574;28;20516;-45
2022/04/29 11:00:28;;;;;;;4.90;4.60;;;30.40;27.80;;;;;;5075733;28;20595;-46
2022/04/29 11:02:54;;;;;;;4.90;4.60;;;30.70;27.50;;;;;;5063083;28;20529;-45
2022/04/29 11:05:35;;;;;;;3.97;3.57;;;30.70;27.70;;;;;;5072533;28;20436;-44
2022/04/29 11:08:09;;;;;;;4.43;4.10;;;31.00;28.80;;;;;;5074656;28;20503;-45
2022/04/29 11:10:57;;;;;;;5.10;4.70;;;31.10;28.60;;;;;;5075691;28;20393;-44
2022/04/29 11:13:24;;;;;;;4.60;4.20;;;30.70;26.00;;;;;;5074033;28;20433;-48
2022/04/29 11:15:51;;;;;;;5.20;4.80;;;30.30;25.90;;;;;;5072342;28;20428;-46
2022/04/29 11:18:23;;;;;;;5.23;4.83;;;29.80;26.30;;;;;;5052172;28;20523;-46
2022/04/29 11:26:46;;;;;;;4.70;4.30;;;29.30;27.90;;;;;;5071477;28;20496;-44
2022/04/29 11:29:16;;;;;;;4.10;3.83;;;29.40;27.90;;;;;;5076168;28;20451;-45
2022/04/29 11:31:42;;;;;;;3.93;3.63;;;29.60;28.20;;;;;;5075892;28;20426;-45
2022/04/29 11:34:09;;;;;;;3.90;3.60;;;29.50;27.40;;;;;;5075481;28;20416;-45
2022/04/29 11:36:36;;;;;;;4.97;4.60;;;29.50;27.50;;;;;;5074863;28;21192;-46
2022/04/29 11:39:03;;;;;;;4.40;4.10;;;29.20;27.40;;;;;;5075670;28;20498;-45
2022/04/29 11:41:30;;;;;;;4.63;4.03;;;29.00;27.30;;;;;;5057828;28;20950;-44
2022/04/29 11:43:56;;;;;;;5.53;4.90;;;28.80;28.60;;;;;;5075204;28;20404;-46
2022/04/29 11:46:22;;;;;;;4.83;4.43;;;28.60;27.90;;;;;;5075584;28;20484;-47
2022/04/29 11:48:58;;;;;;;4.73;4.27;;;28.40;27.80;;;;;;5076119;28;20230;-43
2022/04/29 11:51:28;;;;;;;4.10;3.80;;;28.20;28.50;;;;;;5074704;28;20496;-46
2022/04/29 11:54:03;;;;;;;3.93;3.63;;;28.10;29.40;;;;;;5057305;28;20847;-48
2022/04/29 11:56:36;;;;;;;4.17;3.77;;;28.30;29.90;;;;;;5056398;28;20423;-46
2022/04/29 11:59:09;;;;;;;3.70;3.40;;;28.40;29.90;;;;;;5056441;28;20508;-46
2022/04/29 12:01:35;;;;;;;3.90;3.60;;;28.50;29.90;;;;;;5055446;28;20420;-44
2022/04/29 12:04:01;;;;;;;4.70;4.40;;;28.60;29.40;;;;;;5056605;28;20417;-43
2022/04/29 12:06:28;;;;;;;3.97;3.67;;;28.50;28.40;;;;;;5055707;28;20427;-46
2022/04/29 12:08:54;;;;;;;4.50;4.10;;;28.20;29.30;;;;;;5055158;28;20811;-45
2022/04/29 12:11:38;;;;;;;3.90;3.67;;;28.10;29.60;;;;;;5051517;28;20564;-47
2022/04/29 12:14:16;;;;;;;4.13;3.83;;;28.10;29.90;;;;;;5075108;28;20405;-43
2022/04/29 12:16:46;;;;;;;4.20;3.90;;;28.10;29.60;;;;;;5075843;28;20718;-44
2022/04/29 12:19:21;;;;;;;3.70;3.40;;;28.00;29.20;;;;;;5075373;28;20465;-42
2022/04/29 12:21:57;;;;;;;4.10;3.80;;;28.10;29.60;;;;;;5073714;28;20398;-43
2022/04/29 12:24:24;;;;;;;3.97;3.67;;;28.40;29.50;;;;;;5075663;28;20841;-44
2022/04/29 12:27:06;;;;;;;4.00;3.73;;;28.90;30.00;;;;;;5074857;28;20434;-44
2022/04/29 12:29:32;;;;;;;4.50;3.60;;;29.80;29.80;;;;;;5074535;28;20420;-46
2022/04/29 12:35:10;;;;;;;4.77;4.47;;;31.20;28.60;;;;;;5059909;28;20408;-44
2022/04/29 12:37:36;;;;;;;4.67;4.37;;;31.50;27.90;;;;;;5073616;28;20800;-47
2022/04/29 12:40:10;;;;;;;4.20;3.80;;;31.50;28.30;;;;;;5073442;28;20482;-46
2022/04/29 12:42:36;;;;;;;3.77;3.53;;;31.50;28.70;;;;;;5074979;28;20436;-43
2022/04/29 12:45:14;;;;;;;4.20;3.90;;;31.70;28.30;;;;;;5074165;28;20440;-44
2022/04/29 12:47:40;;;;;;;3.77;3.50;;;32.10;28.20;;;;;;5074689;28;20274;-45
2022/04/29 12:50:19;;;;;;;4.07;3.67;;;32.40;28.10;;;;;;5072588;28;20486;-46
2022/04/29 12:53:04;;;;;;;4.50;4.20;;;32.70;28.00;;;;;;5071086;28;20241;-47
2022/04/29 12:55:42;;;;;;;5.03;4.17;;;33.10;27.80;;;;;;5072876;28;20516;-44
2022/04/29 12:58:08;;;;;;;5.27;4.73;;;33.30;27.70;;;;;;5072473;28;20545;-45
2022/04/29 13:00:36;;;;;;;4.73;4.43;;;33.50;26.80;;;;;;5073036;28;20645;-47
2022/04/29 13:03:10;;;;;;;6.13;5.63;;;33.60;26.90;;;;;;5055180;28;20469;-47
2022/04/29 13:05:37;;;;;;;5.50;5.00;;;33.50;26.20;;;;;;5057494;28;20412;-45
2022/04/29 13:08:04;;;;;;;4.33;4.03;;;33.30;26.50;;;;;;5056533;28;20469;-46
2022/04/29 13:10:32;;;;;;;4.27;3.77;;;33.10;27.40;;;;;;5074755;28;20433;-44
2022/04/29 13:12:58;;;;;;;5.17;4.53;;;32.80;27.60;;;;;;5057417;28;20475;-44
2022/04/29 13:15:23;;;;;;;4.40;4.00;;;32.40;27.30;;;;;;5057121;28;20425;-45
2022/04/29 13:17:49;;;;;;;4.43;4.10;;;32.00;27.50;;;;;;5040613;28;20196;-45
2022/04/29 13:20:30;;;;;;;5.20;4.33;;;31.60;27.40;;;;;;5074094;28;20557;-45
2022/04/29 13:22:55;;;;;;;5.20;4.80;;;31.20;28.00;;;;;;5073968;28;20196;-46
2022/04/29 13:25:21;;;;;;;4.80;4.40;;;30.80;27.70;;;;;;5075902;28;20420;-48
2022/04/29 13:27:47;;;;;;;4.30;4.00;;;30.50;28.20;;;;;;5057393;28;20184;-44